VQPRVNKT

Guest
Details From VQPR - PARO
To VNKT - Kathmandu Tribhuvan Intl
Flight Number -
Tags generated
Created
Modified
Stats Distance 239 nm / 442 km
Max Altitude 26,300 ft / 8,016 m
Waypoints 4
Social Downloads 26
Likes 0
Share

Download

Looking for another format? Having issues loading an existing format? Contact us
Advertisement - Login to hide

Notes

Basic altitude profile: - Ascent Rate: 2500ft/min - Ascent Speed: 250kts - Cruise Altitude: 24000ft - Cruise Speed: 390kts - Descent Rate: 1500ft/min - Descent Speed: 250kts Options: - Use NATs: yes - Use PACOTS: yes - Use low airways: yes - Use high airways: no

Route

VQPR MECHI G348 KTM VNKT

ID Type Via Altitude (ft/m) Position (lat/lon) Dist (leg/tot) Name
O VQPR APT - 0 / 0 27.40319 / 89.42461 - / 0 nm PARO
MECHI FIX - 26,300 / 8,016 26.76814 / 88.18200 76 / 76 nm
KTM VOR G348 (AWY-LO) 26,000 / 7,925 27.67472 / 85.34917 160 / 237 nm KATHMANDU VOR-DME
O VNKT APT - 0 / 0 27.69658 / 85.35910 1 / 238 nm Kathmandu Tribhuvan Intl

Altitude Profile

Advertisement - Login to hide

Weather


0- 5 10 15 20 25 30 35+ Temperature / °C

Clouds and Precipitation
Forecast for 2021-07-24 12:00 UTC. Updated an hour ago

Ground ~20,000 ft ~40,000 ft Winds

VQPR

Details ICAO VQPR (PBH)
Name Paro International Airport
Region Bhutan
Timezone Asia/Thimphu (UTC+6.0)
Stats Elevation 7,364 ft / 2,245 m (AMSL)
Location 27.403300° 89.424700°
Runways 1
Magnetic Variation 0.272° E

METAR

VQPR 240930Z 17011KT 9999 FEW040 30/13 Q1012

Decode

TAF

Not found

Departure Runways

ID Width Length Bearing (true/mag) Surface Threshold Overrun Markings Lighting
15 98 ft / 30 m 7,451 ft / 2,271 m 150.44° / 150.17° ASPHALT 525 ft / 160 m 0 ft / 0 m PREC-APP
33 98 ft / 30 m 7,451 ft / 2,271 m 330.44° / 330.17° ASPHALT 394 ft / 120 m 0 ft / 0 m PREC-APP

VNKT

Details ICAO VNKT (KTM)
Name Kathmandu Tribhuvan Intl
Region Nepal
Timezone Asia/Kathmandu (UTC+5.8)
Stats Elevation 4,395 ft / 1,340 m (AMSL)
Location 27.696600° 85.359200°
Runways 1
Magnetic Variation 0.672° E

METAR

VNKT 241020Z 20009KT 9999 FEW020 SCT030 30/23 Q1006 NOSIG

Decode

TAF

TAF VNKT 232300Z 2400/2424 11005KT 7000 FEW015 SCT030 BECMG 2403/2404 19004KT 8000 FEW015 SCT030 BKN100 PROB30 2408/2412 VRB05KT 5000 -TSRA/RA FEW025CB BECMG 2413/2414 16003KT 6000 FEW010 SCT030 BKN100 PROB30 2416/2420 VRB05KT 5000 -TSRA/RA FEW025CB

Decode

Destination Runways

ID Width Length Bearing (true/mag) Surface Threshold Overrun Markings Lighting
02 151 ft / 46 m 10,016 ft / 3,053 m 21.96° / 21.28° ASPHALT 0 ft / 0 m 0 ft / 0 m PREC-APP EDGE THRESHOLD SALS REIL-OMNI
20 151 ft / 46 m 10,016 ft / 3,053 m 201.96° / 201.29° ASPHALT 404 ft / 123 m 0 ft / 0 m PREC-APP EDGE THRESHOLD REIL-OMNI

Popular Alternatives